Dinsmore, Canada
Current Conditions -  °F | °C
As of 3:00 PM on Tuesday 25 Nov 2014 (Local Time) from CYXE Reporting Station
Overcast Overcast  
Wind Chill: -6°   Ceiling: 10000
Heat Index:   Visibility: 15mi
Dew Point:   Wind: 10mph
Humidity: 79%   Direction: 50°NE
Pressure: 30.11"   Gusts: NA
Location:  51.33°N, 107.45°W
Report Text: CYXE 252100Z 05009KT 15SM BKN100 OVC250 M13/M16 A3011 RMK AC7CI1 SLP236
Loading
Personal Weather Stations






























Interactive Weather Map New forecast layout! Learn more

10-Day Weather Forecast

Advertisements
Track Severe Weather on mobile